sensor_id;sensor_type;location;lat;lon;timestamp;pressure;altitude;pressure_sealevel;temperature;humidity
42603;BME280;28233;55.748;48.752;2023-04-06T00:01:23;99393.09;;;8.50;55.24
42603;BME280;28233;55.748;48.752;2023-04-06T00:03:26;99387.09;;;8.48;55.61
42603;BME280;28233;55.748;48.752;2023-04-06T00:05:29;99392.38;;;8.44;55.59
42603;BME280;28233;55.748;48.752;2023-04-06T00:07:33;99394.66;;;8.42;55.90
42603;BME280;28233;55.748;48.752;2023-04-06T00:09:36;99389.75;;;8.39;55.73
42603;BME280;28233;55.748;48.752;2023-04-06T00:11:39;99393.75;;;8.33;55.57
42603;BME280;28233;55.748;48.752;2023-04-06T00:13:41;99406.59;;;8.32;55.66
42603;BME280;28233;55.748;48.752;2023-04-06T00:15:44;99405.28;;;8.30;55.73
42603;BME280;28233;55.748;48.752;2023-04-06T00:17:47;99400.00;;;8.33;55.88
42603;BME280;28233;55.748;48.752;2023-04-06T00:19:49;99401.63;;;8.34;55.36
42603;BME280;28233;55.748;48.752;2023-04-06T00:21:52;99407.31;;;8.38;55.12
42603;BME280;28233;55.748;48.752;2023-04-06T00:23:55;99402.34;;;8.40;55.36
42603;BME280;28233;55.748;48.752;2023-04-06T00:25:58;99409.72;;;8.39;55.18
42603;BME280;28233;55.748;48.752;2023-04-06T00:28:00;99415.72;;;8.41;55.43
42603;BME280;28233;55.748;48.752;2023-04-06T00:30:04;99407.22;;;8.43;55.14
42603;BME280;28233;55.748;48.752;2023-04-06T00:32:07;99409.66;;;8.44;55.00
42603;BME280;28233;55.748;48.752;2023-04-06T00:34:10;99405.97;;;8.49;55.21
42603;BME280;28233;55.748;48.752;2023-04-06T00:36:13;99400.97;;;8.51;55.00
42603;BME280;28233;55.748;48.752;2023-04-06T00:38:16;99407.78;;;8.54;55.03
42603;BME280;28233;55.748;48.752;2023-04-06T00:40:19;99410.81;;;8.52;55.14
42603;BME280;28233;55.748;48.752;2023-04-06T00:42:22;99408.25;;;8.56;55.19
42603;BME280;28233;55.748;48.752;2023-04-06T00:44:28;99414.88;;;8.55;55.27
42603;BME280;28233;55.748;48.752;2023-04-06T00:46:31;99412.44;;;8.53;55.15
42603;BME280;28233;55.748;48.752;2023-04-06T00:48:33;99412.06;;;8.46;55.13
42603;BME280;28233;55.748;48.752;2023-04-06T00:50:36;99419.97;;;8.48;55.31
42603;BME280;28233;55.748;48.752;2023-04-06T00:52:39;99413.81;;;8.42;54.78
42603;BME280;28233;55.748;48.752;2023-04-06T00:54:43;99424.94;;;8.45;55.00
42603;BME280;28233;55.748;48.752;2023-04-06T00:56:46;99421.69;;;8.43;54.92
42603;BME280;28233;55.748;48.752;2023-04-06T00:58:49;99417.91;;;8.39;54.70
42603;BME280;28233;55.748;48.752;2023-04-06T01:00:52;99413.88;;;8.37;54.78
42603;BME280;28233;55.748;48.752;2023-04-06T01:02:55;99414.34;;;8.30;54.80
42603;BME280;28233;55.748;48.752;2023-04-06T01:04:58;99413.91;;;8.23;55.14
42603;BME280;28233;55.748;48.752;2023-04-06T01:07:01;99419.00;;;8.16;55.22
42603;BME280;28233;55.748;48.752;2023-04-06T01:09:04;99425.22;;;8.08;55.35
42603;BME280;28233;55.748;48.752;2023-04-06T01:11:07;99424.53;;;8.02;55.76
42603;BME280;28233;55.748;48.752;2023-04-06T01:13:10;99432.31;;;7.95;55.91
42603;BME280;28233;55.748;48.752;2023-04-06T01:15:13;99422.31;;;7.90;56.39
42603;BME280;28233;55.748;48.752;2023-04-06T01:17:16;99423.84;;;7.82;56.33
42603;BME280;28233;55.748;48.752;2023-04-06T01:19:19;99430.53;;;7.76;56.67
42603;BME280;28233;55.748;48.752;2023-04-06T01:21:23;99429.81;;;7.71;56.75
42603;BME280;28233;55.748;48.752;2023-04-06T01:23:26;99428.50;;;7.68;56.74
42603;BME280;28233;55.748;48.752;2023-04-06T01:25:28;99431.13;;;7.59;56.85
42603;BME280;28233;55.748;48.752;2023-04-06T01:27:32;99435.28;;;7.57;57.04
42603;BME280;28233;55.748;48.752;2023-04-06T01:29:34;99427.53;;;7.50;57.40
42603;BME280;28233;55.748;48.752;2023-04-06T01:31:38;99437.31;;;7.51;57.11
42603;BME280;28233;55.748;48.752;2023-04-06T01:33:41;99436.91;;;7.44;57.29
42603;BME280;28233;55.748;48.752;2023-04-06T01:35:44;99444.09;;;7.40;57.23
42603;BME280;28233;55.748;48.752;2023-04-06T01:37:47;99440.03;;;7.37;57.71
42603;BME280;28233;55.748;48.752;2023-04-06T01:39:50;99446.13;;;7.34;57.42
42603;BME280;28233;55.748;48.752;2023-04-06T01:41:53;99446.00;;;7.26;57.96
42603;BME280;28233;55.748;48.752;2023-04-06T01:43:55;99442.75;;;7.24;57.81
42603;BME280;28233;55.748;48.752;2023-04-06T01:45:58;99447.53;;;7.18;58.02
42603;BME280;28233;55.748;48.752;2023-04-06T01:48:01;99450.75;;;7.20;57.86
42603;BME280;28233;55.748;48.752;2023-04-06T01:50:04;99446.50;;;7.14;58.04
42603;BME280;28233;55.748;48.752;2023-04-06T01:52:08;99444.16;;;7.07;58.03
42603;BME280;28233;55.748;48.752;2023-04-06T01:54:11;99460.53;;;7.07;58.04
42603;BME280;28233;55.748;48.752;2023-04-06T01:56:13;99460.63;;;7.02;58.56
42603;BME280;28233;55.748;48.752;2023-04-06T01:58:16;99454.66;;;7.00;58.76
42603;BME280;28233;55.748;48.752;2023-04-06T02:00:19;99466.38;;;7.01;58.58
42603;BME280;28233;55.748;48.752;2023-04-06T02:02:22;99462.94;;;6.95;58.57
42603;BME280;28233;55.748;48.752;2023-04-06T02:04:25;99456.44;;;6.91;58.62
42603;BME280;28233;55.748;48.752;2023-04-06T02:06:28;99462.41;;;6.93;58.85
42603;BME280;28233;55.748;48.752;2023-04-06T02:08:31;99468.16;;;6.91;58.72
42603;BME280;28233;55.748;48.752;2023-04-06T02:10:34;99461.72;;;6.87;58.94
42603;BME280;28233;55.748;48.752;2023-04-06T02:12:37;99467.47;;;6.86;58.84
42603;BME280;28233;55.748;48.752;2023-04-06T02:14:40;99476.47;;;6.86;59.15
42603;BME280;28233;55.748;48.752;2023-04-06T02:16:42;99470.78;;;6.83;58.81
42603;BME280;28233;55.748;48.752;2023-04-06T02:18:45;99466.44;;;6.82;58.93
42603;BME280;28233;55.748;48.752;2023-04-06T02:20:48;99482.09;;;6.76;59.14
42603;BME280;28233;55.748;48.752;2023-04-06T02:22:51;99486.75;;;6.75;59.28
42603;BME280;28233;55.748;48.752;2023-04-06T02:24:53;99493.81;;;6.76;59.15
42603;BME280;28233;55.748;48.752;2023-04-06T02:26:56;99491.97;;;6.72;59.29
42603;BME280;28233;55.748;48.752;2023-04-06T02:28:59;99493.09;;;6.71;59.63
42603;BME280;28233;55.748;48.752;2023-04-06T02:31:01;99495.81;;;6.71;59.33
42603;BME280;28233;55.748;48.752;2023-04-06T02:33:04;99500.16;;;6.72;59.46
42603;BME280;28233;55.748;48.752;2023-04-06T02:35:07;99501.28;;;6.71;59.79
42603;BME280;28233;55.748;48.752;2023-04-06T02:37:10;99507.84;;;6.70;59.35
42603;BME280;28233;55.748;48.752;2023-04-06T02:39:13;99502.09;;;6.71;59.56
42603;BME280;28233;55.748;48.752;2023-04-06T02:41:16;99504.31;;;6.69;59.67
42603;BME280;28233;55.748;48.752;2023-04-06T02:43:19;99511.41;;;6.70;59.43
42603;BME280;28233;55.748;48.752;2023-04-06T02:45:22;99504.81;;;6.71;59.45
42603;BME280;28233;55.748;48.752;2023-04-06T02:47:24;99508.44;;;6.67;59.71
42603;BME280;28233;55.748;48.752;2023-04-06T02:49:27;99504.38;;;6.64;59.55
42603;BME280;28233;55.748;48.752;2023-04-06T02:51:30;99513.97;;;6.62;59.77
42603;BME280;28233;55.748;48.752;2023-04-06T02:53:33;99521.06;;;6.63;59.80
42603;BME280;28233;55.748;48.752;2023-04-06T02:55:35;99515.59;;;6.63;59.87
42603;BME280;28233;55.748;48.752;2023-04-06T02:57:38;99522.97;;;6.62;60.10
42603;BME280;28233;55.748;48.752;2023-04-06T02:59:41;99517.22;;;6.64;60.25
42603;BME280;28233;55.748;48.752;2023-04-06T03:01:44;99526.75;;;6.66;59.92
42603;BME280;28233;55.748;48.752;2023-04-06T03:03:47;99526.75;;;6.66;60.05
42603;BME280;28233;55.748;48.752;2023-04-06T03:05:49;99522.09;;;6.67;60.25
42603;BME280;28233;55.748;48.752;2023-04-06T03:07:52;99522.69;;;6.64;59.95
42603;BME280;28233;55.748;48.752;2023-04-06T03:09:55;99529.16;;;6.68;60.20
42603;BME280;28233;55.748;48.752;2023-04-06T03:11:58;99521.50;;;6.70;59.86
42603;BME280;28233;55.748;48.752;2023-04-06T03:14:00;99525.06;;;6.70;60.02
42603;BME280;28233;55.748;48.752;2023-04-06T03:16:04;99522.63;;;6.69;59.94
42603;BME280;28233;55.748;48.752;2023-04-06T03:18:07;99530.81;;;6.69;60.24
42603;BME280;28233;55.748;48.752;2023-04-06T03:20:10;99530.22;;;6.72;59.72
42603;BME280;28233;55.748;48.752;2023-04-06T03:22:13;99545.19;;;6.74;59.92
42603;BME280;28233;55.748;48.752;2023-04-06T03:24:16;99540.84;;;6.73;59.80
42603;BME280;28233;55.748;48.752;2023-04-06T03:26:18;99542.97;;;6.76;59.96
42603;BME280;28233;55.748;48.752;2023-04-06T03:28:21;99545.69;;;6.76;60.00
42603;BME280;28233;55.748;48.752;2023-04-06T03:30:24;99539.72;;;6.74;59.90
42603;BME280;28233;55.748;48.752;2023-04-06T03:32:28;99546.22;;;6.78;59.80
42603;BME280;28233;55.748;48.752;2023-04-06T03:34:30;99550.28;;;6.81;60.16
42603;BME280;28233;55.748;48.752;2023-04-06T03:36:34;99539.34;;;6.81;59.78
42603;BME280;28233;55.748;48.752;2023-04-06T03:38:37;99556.19;;;6.88;59.87
42603;BME280;28233;55.748;48.752;2023-04-06T03:40:42;99559.72;;;6.89;59.82
42603;BME280;28233;55.748;48.752;2023-04-06T03:42:45;99553.38;;;6.93;59.54
42603;BME280;28233;55.748;48.752;2023-04-06T03:44:47;99558.53;;;6.95;59.47
42603;BME280;28233;55.748;48.752;2023-04-06T03:46:50;99551.97;;;6.96;59.45
42603;BME280;28233;55.748;48.752;2023-04-06T03:48:53;99561.19;;;7.00;59.36
42603;BME280;28233;55.748;48.752;2023-04-06T03:50:56;99560.63;;;7.03;59.49
42603;BME280;28233;55.748;48.752;2023-04-06T03:52:58;99558.09;;;7.07;59.18
42603;BME280;28233;55.748;48.752;2023-04-06T03:55:02;99555.59;;;7.10;59.39
42603;BME280;28233;55.748;48.752;2023-04-06T03:57:05;99562.94;;;7.10;59.43
42603;BME280;28233;55.748;48.752;2023-04-06T03:59:08;99558.53;;;7.14;58.92
42603;BME280;28233;55.748;48.752;2023-04-06T04:01:11;99562.56;;;7.16;59.11
42603;BME280;28233;55.748;48.752;2023-04-06T04:03:14;99562.06;;;7.14;59.06
42603;BME280;28233;55.748;48.752;2023-04-06T04:05:17;99562.56;;;7.16;58.62
42603;BME280;28233;55.748;48.752;2023-04-06T04:07:20;99568.34;;;7.15;58.87
42603;BME280;28233;55.748;48.752;2023-04-06T04:09:22;99567.44;;;7.19;59.01
42603;BME280;28233;55.748;48.752;2023-04-06T04:11:25;99572.41;;;7.17;58.94
42603;BME280;28233;55.748;48.752;2023-04-06T04:13:28;99574.53;;;7.20;58.74
42603;BME280;28233;55.748;48.752;2023-04-06T04:15:30;99576.16;;;7.22;58.80
42603;BME280;28233;55.748;48.752;2023-04-06T04:17:33;99579.91;;;7.26;58.56
42603;BME280;28233;55.748;48.752;2023-04-06T04:19:36;99578.41;;;7.33;58.41
42603;BME280;28233;55.748;48.752;2023-04-06T04:21:43;99567.47;;;7.33;58.47
42603;BME280;28233;55.748;48.752;2023-04-06T04:23:47;99566.31;;;7.39;58.41
42603;BME280;28233;55.748;48.752;2023-04-06T04:25:49;99561.63;;;7.40;58.30
42603;BME280;28233;55.748;48.752;2023-04-06T04:27:53;99564.59;;;7.44;58.43
42603;BME280;28233;55.748;48.752;2023-04-06T04:29:56;99579.59;;;7.46;58.02
42603;BME280;28233;55.748;48.752;2023-04-06T04:31:59;99568.03;;;7.49;58.27
42603;BME280;28233;55.748;48.752;2023-04-06T04:34:02;99569.28;;;7.57;58.09
42603;BME280;28233;55.748;48.752;2023-04-06T04:36:04;99571.72;;;7.58;57.87
42603;BME280;28233;55.748;48.752;2023-04-06T04:38:07;99573.75;;;7.53;57.77
42603;BME280;28233;55.748;48.752;2023-04-06T04:40:11;99578.09;;;7.54;58.26
42603;BME280;28233;55.748;48.752;2023-04-06T04:42:14;99576.06;;;7.59;58.30
42603;BME280;28233;55.748;48.752;2023-04-06T04:44:17;99581.13;;;7.66;57.72
42603;BME280;28233;55.748;48.752;2023-04-06T04:46:19;99576.00;;;7.65;57.43
42603;BME280;28233;55.748;48.752;2023-04-06T04:48:22;99574.75;;;7.71;57.59
42603;BME280;28233;55.748;48.752;2023-04-06T04:50:25;99572.53;;;7.73;57.53
42603;BME280;28233;55.748;48.752;2023-04-06T04:52:28;99582.81;;;7.81;57.44
42603;BME280;28233;55.748;48.752;2023-04-06T04:54:30;99569.63;;;7.83;57.29
42603;BME280;28233;55.748;48.752;2023-04-06T04:56:33;99578.84;;;7.87;57.28
42603;BME280;28233;55.748;48.752;2023-04-06T04:58:36;99580.16;;;7.90;56.97
42603;BME280;28233;55.748;48.752;2023-04-06T05:00:39;99583.50;;;7.87;56.96
42603;BME280;28233;55.748;48.752;2023-04-06T05:02:41;99577.25;;;7.86;57.19
42603;BME280;28233;55.748;48.752;2023-04-06T05:04:45;99576.63;;;7.89;57.27
42603;BME280;28233;55.748;48.752;2023-04-06T05:06:47;99578.34;;;7.85;57.31
42603;BME280;28233;55.748;48.752;2023-04-06T05:08:50;99576.53;;;7.94;56.93
42603;BME280;28233;55.748;48.752;2023-04-06T05:10:53;99584.16;;;7.97;57.03
42603;BME280;28233;55.748;48.752;2023-04-06T05:12:55;99584.44;;;7.96;56.97
42603;BME280;28233;55.748;48.752;2023-04-06T05:14:58;99573.09;;;8.02;57.01
42603;BME280;28233;55.748;48.752;2023-04-06T05:17:02;99581.19;;;8.08;56.69
42603;BME280;28233;55.748;48.752;2023-04-06T05:19:04;99581.19;;;8.08;56.45
42603;BME280;28233;55.748;48.752;2023-04-06T05:21:08;99577.56;;;8.12;56.72
42603;BME280;28233;55.748;48.752;2023-04-06T05:23:12;99571.97;;;8.17;56.74
42603;BME280;28233;55.748;48.752;2023-04-06T05:25:16;99582.13;;;8.17;56.26
42603;BME280;28233;55.748;48.752;2023-04-06T05:27:23;99577.56;;;8.12;56.63
42603;BME280;28233;55.748;48.752;2023-04-06T05:29:31;99581.09;;;8.13;56.69
42603;BME280;28233;55.748;48.752;2023-04-06T05:31:34;99586.34;;;8.23;56.45
42603;BME280;28233;55.748;48.752;2023-04-06T05:33:37;99575.00;;;8.30;56.48
42603;BME280;28233;55.748;48.752;2023-04-06T05:35:40;99573.09;;;8.30;56.13
42603;BME280;28233;55.748;48.752;2023-04-06T05:37:43;99586.28;;;8.28;56.64
42603;BME280;28233;55.748;48.752;2023-04-06T05:39:46;99580.38;;;8.35;56.33
42603;BME280;28233;55.748;48.752;2023-04-06T05:41:49;99577.75;;;8.30;56.01
42603;BME280;28233;55.748;48.752;2023-04-06T05:43:53;99583.94;;;8.35;55.78
42603;BME280;28233;55.748;48.752;2023-04-06T05:45:56;99585.97;;;8.43;56.44
42603;BME280;28233;55.748;48.752;2023-04-06T05:47:59;99589.00;;;8.56;56.01
42603;BME280;28233;55.748;48.752;2023-04-06T05:50:02;99594.19;;;8.57;55.94
42603;BME280;28233;55.748;48.752;2023-04-06T05:52:05;99593.88;;;8.59;55.49
42603;BME280;28233;55.748;48.752;2023-04-06T05:54:08;99583.63;;;8.51;55.71
42603;BME280;28233;55.748;48.752;2023-04-06T05:56:11;99597.59;;;8.63;56.04
42603;BME280;28233;55.748;48.752;2023-04-06T05:58:14;99590.19;;;8.77;55.54
42603;BME280;28233;55.748;48.752;2023-04-06T06:00:17;99594.78;;;8.68;55.51
42603;BME280;28233;55.748;48.752;2023-04-06T06:02:20;99591.94;;;8.73;56.01
42603;BME280;28233;55.748;48.752;2023-04-06T06:04:23;99595.19;;;8.75;55.43
42603;BME280;28233;55.748;48.752;2023-04-06T06:06:27;99594.13;;;8.85;55.53
42603;BME280;28233;55.748;48.752;2023-04-06T06:08:30;99585.31;;;8.74;55.92
42603;BME280;28233;55.748;48.752;2023-04-06T06:10:33;99599.72;;;8.80;55.34
42603;BME280;28233;55.748;48.752;2023-04-06T06:12:36;99595.47;;;8.74;55.26
42603;BME280;28233;55.748;48.752;2023-04-06T06:14:39;99601.75;;;8.74;55.05
42603;BME280;28233;55.748;48.752;2023-04-06T06:16:42;99602.09;;;8.73;55.30
42603;BME280;28233;55.748;48.752;2023-04-06T06:18:45;99599.81;;;8.75;55.47
42603;BME280;28233;55.748;48.752;2023-04-06T06:20:48;99600.03;;;8.78;55.17
42603;BME280;28233;55.748;48.752;2023-04-06T06:22:52;99599.72;;;8.80;55.85
42603;BME280;28233;55.748;48.752;2023-04-06T06:24:55;99602.47;;;8.80;55.39
42603;BME280;28233;55.748;48.752;2023-04-06T06:26:58;99606.00;;;8.80;55.51
42603;BME280;28233;55.748;48.752;2023-04-06T06:29:01;99605.50;;;8.78;55.30
42603;BME280;28233;55.748;48.752;2023-04-06T06:31:03;99602.47;;;8.80;55.39
42603;BME280;28233;55.748;48.752;2023-04-06T06:33:07;99603.66;;;8.87;55.38
42603;BME280;28233;55.748;48.752;2023-04-06T06:35:09;99606.38;;;9.01;55.75
42603;BME280;28233;55.748;48.752;2023-04-06T06:37:12;99616.91;;;9.08;55.67
42603;BME280;28233;55.748;48.752;2023-04-06T06:39:15;99611.81;;;9.15;55.46
42603;BME280;28233;55.748;48.752;2023-04-06T06:41:18;99619.03;;;9.11;55.43
42603;BME280;28233;55.748;48.752;2023-04-06T06:43:21;99621.09;;;9.05;55.97
42603;BME280;28233;55.748;48.752;2023-04-06T06:45:23;99613.81;;;9.23;56.15
42603;BME280;28233;55.748;48.752;2023-04-06T06:47:27;99608.19;;;9.28;55.63
42603;BME280;28233;55.748;48.752;2023-04-06T06:49:30;99619.16;;;9.28;55.17
42603;BME280;28233;55.748;48.752;2023-04-06T06:51:33;99611.06;;;9.23;55.17
42603;BME280;28233;55.748;48.752;2023-04-06T06:53:36;99618.34;;;9.28;55.36
42603;BME280;28233;55.748;48.752;2023-04-06T06:55:39;99623.03;;;9.27;55.62
42603;BME280;28233;55.748;48.752;2023-04-06T06:57:42;99619.59;;;9.44;55.36
42603;BME280;28233;55.748;48.752;2023-04-06T06:59:46;99614.63;;;9.46;54.66
42603;BME280;28233;55.748;48.752;2023-04-06T07:01:53;99619.84;;;9.57;54.84
42603;BME280;28233;55.748;48.752;2023-04-06T07:03:56;99623.47;;;9.66;53.91
42603;BME280;28233;55.748;48.752;2023-04-06T07:05:59;99619.91;;;9.65;53.33
42603;BME280;28233;55.748;48.752;2023-04-06T07:08:02;99613.78;;;9.68;53.79
42603;BME280;28233;55.748;48.752;2023-04-06T07:10:05;99611.53;;;9.70;53.18
42603;BME280;28233;55.748;48.752;2023-04-06T07:12:08;99616.91;;;9.76;52.54
42603;BME280;28233;55.748;48.752;2023-04-06T07:14:11;99624.81;;;9.77;52.72
42603;BME280;28233;55.748;48.752;2023-04-06T07:16:14;99615.16;;;9.80;53.25
42603;BME280;28233;55.748;48.752;2023-04-06T07:18:18;99610.97;;;9.82;53.00
42603;BME280;28233;55.748;48.752;2023-04-06T07:20:20;99614.06;;;9.89;52.73
42603;BME280;28233;55.748;48.752;2023-04-06T07:22:23;99620.25;;;9.95;52.77
42603;BME280;28233;55.748;48.752;2023-04-06T07:24:26;99611.25;;;10.03;52.91
42603;BME280;28233;55.748;48.752;2023-04-06T07:26:29;99613.22;;;10.11;52.39
42603;BME280;28233;55.748;48.752;2023-04-06T07:28:32;99607.44;;;10.22;51.98
42603;BME280;28233;55.748;48.752;2023-04-06T07:30:36;99606.31;;;10.23;52.22
42603;BME280;28233;55.748;48.752;2023-04-06T07:32:39;99613.09;;;10.16;51.29
42603;BME280;28233;55.748;48.752;2023-04-06T07:34:42;99608.09;;;10.19;51.68
42603;BME280;28233;55.748;48.752;2023-04-06T07:36:47;99603.56;;;10.23;51.47
42603;BME280;28233;55.748;48.752;2023-04-06T07:38:50;99607.13;;;10.23;51.35
42603;BME280;28233;55.748;48.752;2023-04-06T07:40:53;99607.59;;;10.25;51.89
42603;BME280;28233;55.748;48.752;2023-04-06T07:42:56;99616.56;;;10.31;50.97
42603;BME280;28233;55.748;48.752;2023-04-06T07:44:59;99605.34;;;10.27;51.24
42603;BME280;28233;55.748;48.752;2023-04-06T07:47:02;99604.28;;;10.28;51.25
42603;BME280;28233;55.748;48.752;2023-04-06T07:49:05;99593.69;;;10.44;51.18
42603;BME280;28233;55.748;48.752;2023-04-06T07:51:08;99609.53;;;10.56;51.20
42603;BME280;28233;55.748;48.752;2023-04-06T07:53:13;99619.53;;;10.52;50.26
42603;BME280;28233;55.748;48.752;2023-04-06T07:55:16;99612.91;;;10.53;49.99
42603;BME280;28233;55.748;48.752;2023-04-06T07:57:19;99623.69;;;10.41;49.73
42603;BME280;28233;55.748;48.752;2023-04-06T07:59:22;99620.94;;;10.41;49.97
42603;BME280;28233;55.748;48.752;2023-04-06T08:01:27;99614.00;;;10.43;49.96
42603;BME280;28233;55.748;48.752;2023-04-06T08:03:33;99618.25;;;10.49;49.85
42603;BME280;28233;55.748;48.752;2023-04-06T08:05:37;99617.28;;;10.54;50.22
42603;BME280;28233;55.748;48.752;2023-04-06T08:07:40;99614.25;;;10.73;50.09
42603;BME280;28233;55.748;48.752;2023-04-06T08:09:44;99617.00;;;10.73;49.42
42603;BME280;28233;55.748;48.752;2023-04-06T08:11:47;99624.56;;;10.67;49.26
42603;BME280;28233;55.748;48.752;2023-04-06T08:13:52;99617.97;;;10.77;49.00
42603;BME280;28233;55.748;48.752;2023-04-06T08:15:56;99618.66;;;11.00;49.05
42603;BME280;28233;55.748;48.752;2023-04-06T08:18:01;99632.56;;;11.21;49.22
42603;BME280;28233;55.748;48.752;2023-04-06T08:20:05;99623.84;;;11.19;48.26
42603;BME280;28233;55.748;48.752;2023-04-06T08:22:08;99620.94;;;11.24;48.03
42603;BME280;28233;55.748;48.752;2023-04-06T08:24:11;99631.63;;;11.34;47.91
42603;BME280;28233;55.748;48.752;2023-04-06T08:26:14;99627.41;;;11.37;47.91
42603;BME280;28233;55.748;48.752;2023-04-06T08:28:17;99626.59;;;11.36;47.79
42603;BME280;28233;55.748;48.752;2023-04-06T08:30:19;99627.72;;;11.53;47.02
42603;BME280;28233;55.748;48.752;2023-04-06T08:32:23;99628.97;;;11.64;47.20
42603;BME280;28233;55.748;48.752;2023-04-06T08:34:27;99626.22;;;11.64;47.12
42603;BME280;28233;55.748;48.752;2023-04-06T08:36:30;99633.00;;;11.75;46.95
42603;BME280;28233;55.748;48.752;2023-04-06T08:38:33;99632.69;;;11.85;46.92
42603;BME280;28233;55.748;48.752;2023-04-06T08:40:39;99626.06;;;11.95;46.23
42603;BME280;28233;55.748;48.752;2023-04-06T08:42:48;99634.75;;;12.06;46.16
42603;BME280;28233;55.748;48.752;2023-04-06T08:44:52;99632.78;;;12.15;45.94
42603;BME280;28233;55.748;48.752;2023-04-06T08:46:56;99634.22;;;12.21;45.20
42603;BME280;28233;55.748;48.752;2023-04-06T08:49:02;99628.34;;;12.32;45.29
42603;BME280;28233;55.748;48.752;2023-04-06T08:51:05;99639.34;;;12.40;44.71
42603;BME280;28233;55.748;48.752;2023-04-06T08:53:08;99637.84;;;12.43;44.73
42603;BME280;28233;55.748;48.752;2023-04-06T08:55:11;99637.97;;;12.55;45.06
42603;BME280;28233;55.748;48.752;2023-04-06T08:57:15;99640.69;;;12.64;43.72
42603;BME280;28233;55.748;48.752;2023-04-06T08:59:23;99639.44;;;12.53;43.43
42603;BME280;28233;55.748;48.752;2023-04-06T09:01:27;99647.16;;;12.30;43.73
42603;BME280;28233;55.748;48.752;2023-04-06T09:03:31;99644.28;;;12.17;43.68
42603;BME280;28233;55.748;48.752;2023-04-06T09:05:38;99633.94;;;12.05;43.89
42603;BME280;28233;55.748;48.752;2023-04-06T09:07:41;99640.72;;;12.17;43.87
42603;BME280;28233;55.748;48.752;2023-04-06T09:09:44;99636.00;;;12.26;44.39
42603;BME280;28233;55.748;48.752;2023-04-06T09:11:51;99653.13;;;12.32;43.88
42603;BME280;28233;55.748;48.752;2023-04-06T09:13:55;99650.09;;;12.24;43.93
42603;BME280;28233;55.748;48.752;2023-04-06T09:16:04;99636.41;;;12.37;43.46
42603;BME280;28233;55.748;48.752;2023-04-06T09:18:08;99646.63;;;12.36;43.91
42603;BME280;28233;55.748;48.752;2023-04-06T09:20:14;99635.91;;;12.43;44.51
42603;BME280;28233;55.748;48.752;2023-04-06T09:22:23;99631.53;;;12.42;43.95
42603;BME280;28233;55.748;48.752;2023-04-06T09:24:28;99643.59;;;12.29;44.10
42603;BME280;28233;55.748;48.752;2023-04-06T09:26:30;99636.47;;;12.28;43.52
42603;BME280;28233;55.748;48.752;2023-04-06T09:30:48;99647.50;;;12.19;44.08
42603;BME280;28233;55.748;48.752;2023-04-06T09:32:54;99648.31;;;12.20;44.35
42603;BME280;28233;55.748;48.752;2023-04-06T09:35:10;99652.06;;;12.15;44.16
42603;BME280;28233;55.748;48.752;2023-04-06T09:37:18;99651.28;;;12.06;43.70
42603;BME280;28233;55.748;48.752;2023-04-06T09:39:21;99653.72;;;12.08;43.42
42603;BME280;28233;55.748;48.752;2023-04-06T09:41:29;99644.56;;;12.24;43.17
42603;BME280;28233;55.748;48.752;2023-04-06T09:43:33;99640.91;;;12.50;43.50
42603;BME280;28233;55.748;48.752;2023-04-06T09:45:35;99651.41;;;12.57;43.14
42603;BME280;28233;55.748;48.752;2023-04-06T09:47:42;99649.28;;;12.62;42.28
42603;BME280;28233;55.748;48.752;2023-04-06T09:49:47;99650.63;;;12.56;41.90
42603;BME280;28233;55.748;48.752;2023-04-06T09:51:56;99657.38;;;12.29;41.81
42603;BME280;28233;55.748;48.752;2023-04-06T09:54:01;99658.31;;;12.42;42.30
42603;BME280;28233;55.748;48.752;2023-04-06T09:56:08;99662.16;;;12.50;42.01
42603;BME280;28233;55.748;48.752;2023-04-06T09:58:16;99650.63;;;12.56;41.88
42603;BME280;28233;55.748;48.752;2023-04-06T10:00:25;99662.63;;;12.52;41.37
42603;BME280;28233;55.748;48.752;2023-04-06T10:02:33;99652.69;;;12.59;41.36
42603;BME280;28233;55.748;48.752;2023-04-06T10:04:42;99665.25;;;12.78;41.23
42603;BME280;28233;55.748;48.752;2023-04-06T10:06:46;99658.09;;;12.77;40.82
42603;BME280;28233;55.748;48.752;2023-04-06T10:08:56;99647.16;;;12.68;40.46
42603;BME280;28233;55.748;48.752;2023-04-06T10:11:04;99642.28;;;12.65;40.58
42603;BME280;28233;55.748;48.752;2023-04-06T10:13:14;99650.13;;;12.84;39.94
42603;BME280;28233;55.748;48.752;2023-04-06T10:15:34;99656.28;;;12.89;39.96
42603;BME280;28233;55.748;48.752;2023-04-06T10:17:39;99658.16;;;12.98;40.05
42603;BME280;28233;55.748;48.752;2023-04-06T10:19:59;99658.44;;;13.05;39.53
42603;BME280;28233;55.748;48.752;2023-04-06T10:23:06;99661.94;;;13.14;39.43
42603;BME280;28233;55.748;48.752;2023-04-06T10:24:49;99656.03;;;13.24;39.65
42603;BME280;28233;55.748;48.752;2023-04-06T10:27:01;99661.84;;;13.31;39.16
42603;BME280;28233;55.748;48.752;2023-04-06T10:29:05;99653.94;;;13.21;38.96
42603;BME280;28233;55.748;48.752;2023-04-06T10:31:08;99664.13;;;13.29;38.87
42603;BME280;28233;55.748;48.752;2023-04-06T10:33:15;99663.59;;;13.36;38.08
42603;BME280;28233;55.748;48.752;2023-04-06T10:35:19;99661.16;;;13.35;38.01
42603;BME280;28233;55.748;48.752;2023-04-06T10:37:21;99669.97;;;13.49;38.41
42603;BME280;28233;55.748;48.752;2023-04-06T10:39:24;99668.44;;;13.60;38.08
42603;BME280;28233;55.748;48.752;2023-04-06T10:41:45;99661.81;;;13.73;37.55
42603;BME280;28233;55.748;48.752;2023-04-06T10:43:56;99666.69;;;13.56;36.58
42603;BME280;28233;55.748;48.752;2023-04-06T10:46:00;99658.63;;;13.50;37.18
42603;BME280;28233;55.748;48.752;2023-04-06T10:48:13;99666.69;;;13.56;37.22
42603;BME280;28233;55.748;48.752;2023-04-06T10:50:17;99665.00;;;13.42;36.77
42603;BME280;28233;55.748;48.752;2023-04-06T10:52:20;99665.34;;;13.41;37.34
42603;BME280;28233;55.748;48.752;2023-04-06T10:54:24;99672.75;;;13.49;37.51
42603;BME280;28233;55.748;48.752;2023-04-06T10:56:28;99658.13;;;13.69;36.97